sensor_id;sensor_type;location;lat;lon;timestamp;P1;durP1;ratioP1;P2;durP2;ratioP2
48375;SDS011;34178;50.904;11.560;2023-02-18T00:00:56;10.60;;;5.93;;
48375;SDS011;34178;50.904;11.560;2023-02-18T00:03:22;11.23;;;5.47;;
48375;SDS011;34178;50.904;11.560;2023-02-18T00:05:50;9.98;;;5.85;;
48375;SDS011;34178;50.904;11.560;2023-02-18T00:08:16;8.80;;;5.43;;
48375;SDS011;34178;50.904;11.560;2023-02-18T00:10:42;10.43;;;6.40;;
48375;SDS011;34178;50.904;11.560;2023-02-18T00:13:07;13.55;;;6.60;;
48375;SDS011;34178;50.904;11.560;2023-02-18T00:15:34;10.73;;;6.00;;
48375;SDS011;34178;50.904;11.560;2023-02-18T00:18:00;12.38;;;6.82;;
48375;SDS011;34178;50.904;11.560;2023-02-18T00:20:25;12.02;;;6.70;;
48375;SDS011;34178;50.904;11.560;2023-02-18T00:22:51;13.45;;;7.05;;
48375;SDS011;34178;50.904;11.560;2023-02-18T00:25:17;13.88;;;7.50;;
48375;SDS011;34178;50.904;11.560;2023-02-18T00:27:42;12.00;;;7.82;;
48375;SDS011;34178;50.904;11.560;2023-02-18T00:30:08;14.77;;;7.78;;
48375;SDS011;34178;50.904;11.560;2023-02-18T00:32:34;12.88;;;8.20;;
48375;SDS011;34178;50.904;11.560;2023-02-18T00:35:00;15.27;;;7.35;;
48375;SDS011;34178;50.904;11.560;2023-02-18T00:37:26;12.48;;;8.05;;
48375;SDS011;34178;50.904;11.560;2023-02-18T00:39:51;12.00;;;7.22;;
48375;SDS011;34178;50.904;11.560;2023-02-18T00:42:17;14.07;;;8.13;;
48375;SDS011;34178;50.904;11.560;2023-02-18T00:44:43;12.55;;;7.97;;
48375;SDS011;34178;50.904;11.560;2023-02-18T00:47:08;14.38;;;8.43;;
48375;SDS011;34178;50.904;11.560;2023-02-18T00:49:34;15.10;;;8.50;;
48375;SDS011;34178;50.904;11.560;2023-02-18T00:52:00;12.35;;;7.72;;
48375;SDS011;34178;50.904;11.560;2023-02-18T00:54:26;14.80;;;8.93;;
48375;SDS011;34178;50.904;11.560;2023-02-18T00:56:51;14.50;;;9.00;;
48375;SDS011;34178;50.904;11.560;2023-02-18T00:59:17;14.77;;;8.98;;
48375;SDS011;34178;50.904;11.560;2023-02-18T01:01:43;14.60;;;9.48;;
48375;SDS011;34178;50.904;11.560;2023-02-18T01:04:09;13.90;;;8.35;;
48375;SDS011;34178;50.904;11.560;2023-02-18T01:06:35;15.23;;;8.95;;
48375;SDS011;34178;50.904;11.560;2023-02-18T01:09:00;13.55;;;8.50;;
48375;SDS011;34178;50.904;11.560;2023-02-18T01:11:26;15.15;;;8.95;;
48375;SDS011;34178;50.904;11.560;2023-02-18T01:13:52;13.35;;;8.73;;
48375;SDS011;34178;50.904;11.560;2023-02-18T01:16:17;13.75;;;8.65;;
48375;SDS011;34178;50.904;11.560;2023-02-18T01:18:43;14.15;;;8.77;;
48375;SDS011;34178;50.904;11.560;2023-02-18T01:21:09;15.27;;;9.43;;
48375;SDS011;34178;50.904;11.560;2023-02-18T01:23:36;15.27;;;9.15;;
48375;SDS011;34178;50.904;11.560;2023-02-18T01:26:03;13.15;;;7.38;;
48375;SDS011;34178;50.904;11.560;2023-02-18T01:28:29;12.75;;;8.00;;
48375;SDS011;34178;50.904;11.560;2023-02-18T01:30:55;13.55;;;8.13;;
48375;SDS011;34178;50.904;11.560;2023-02-18T01:33:21;11.65;;;7.30;;
48375;SDS011;34178;50.904;11.560;2023-02-18T01:35:46;12.10;;;7.50;;
48375;SDS011;34178;50.904;11.560;2023-02-18T01:38:12;13.43;;;7.20;;
48375;SDS011;34178;50.904;11.560;2023-02-18T01:40:46;14.57;;;7.82;;
48375;SDS011;34178;50.904;11.560;2023-02-18T01:43:15;11.95;;;7.30;;
48375;SDS011;34178;50.904;11.560;2023-02-18T01:45:55;12.82;;;7.00;;
48375;SDS011;34178;50.904;11.560;2023-02-18T01:48:34;13.90;;;7.68;;
48375;SDS011;34178;50.904;11.560;2023-02-18T01:53:46;13.15;;;7.25;;
48375;SDS011;34178;50.904;11.560;2023-02-18T01:56:23;13.15;;;7.15;;
48375;SDS011;34178;50.904;11.560;2023-02-18T01:58:59;11.60;;;7.20;;
48375;SDS011;34178;50.904;11.560;2023-02-18T02:01:27;15.27;;;7.88;;
48375;SDS011;34178;50.904;11.560;2023-02-18T02:03:54;14.45;;;8.02;;
48375;SDS011;34178;50.904;11.560;2023-02-18T02:06:20;14.40;;;7.18;;
48375;SDS011;34178;50.904;11.560;2023-02-18T02:08:47;14.50;;;7.53;;
48375;SDS011;34178;50.904;11.560;2023-02-18T02:17:38;20.80;;;10.10;;
48375;SDS011;34178;50.904;11.560;2023-02-18T02:34:34;16.95;;;8.00;;
48375;SDS011;34178;50.904;11.560;2023-02-18T02:37:15;13.82;;;6.75;;
48375;SDS011;34178;50.904;11.560;2023-02-18T02:53:50;19.88;;;8.15;;
48375;SDS011;34178;50.904;11.560;2023-02-18T02:58:44;12.32;;;6.00;;
48375;SDS011;34178;50.904;11.560;2023-02-18T03:06:28;17.08;;;7.93;;
48375;SDS011;34178;50.904;11.560;2023-02-18T03:09:27;9.90;;;5.75;;
48375;SDS011;34178;50.904;11.560;2023-02-18T03:15:54;12.80;;;7.15;;
48375;SDS011;34178;50.904;11.560;2023-02-18T03:23:34;11.75;;;6.38;;
48375;SDS011;34178;50.904;11.560;2023-02-18T03:26:05;9.80;;;6.00;;
48375;SDS011;34178;50.904;11.560;2023-02-18T03:28:33;10.32;;;5.60;;
48375;SDS011;34178;50.904;11.560;2023-02-18T03:31:07;10.57;;;5.93;;
48375;SDS011;34178;50.904;11.560;2023-02-18T03:33:39;9.10;;;5.38;;
48375;SDS011;34178;50.904;11.560;2023-02-18T03:36:10;8.50;;;5.47;;
48375;SDS011;34178;50.904;11.560;2023-02-18T03:38:39;10.68;;;4.95;;
48375;SDS011;34178;50.904;11.560;2023-02-18T03:41:09;7.90;;;4.70;;
48375;SDS011;34178;50.904;11.560;2023-02-18T03:43:35;8.85;;;4.32;;
48375;SDS011;34178;50.904;11.560;2023-02-18T03:46:01;9.18;;;4.65;;
48375;SDS011;34178;50.904;11.560;2023-02-18T03:48:27;7.20;;;4.15;;
48375;SDS011;34178;50.904;11.560;2023-02-18T03:50:53;7.40;;;4.40;;
48375;SDS011;34178;50.904;11.560;2023-02-18T03:53:19;8.57;;;5.18;;
48375;SDS011;34178;50.904;11.560;2023-02-18T03:55:45;9.75;;;5.40;;
48375;SDS011;34178;50.904;11.560;2023-02-18T03:58:10;9.35;;;4.85;;
48375;SDS011;34178;50.904;11.560;2023-02-18T04:00:36;8.35;;;4.93;;
48375;SDS011;34178;50.904;11.560;2023-02-18T04:03:02;10.20;;;5.03;;
48375;SDS011;34178;50.904;11.560;2023-02-18T04:05:27;9.63;;;4.60;;
48375;SDS011;34178;50.904;11.560;2023-02-18T04:07:53;8.48;;;5.15;;
48375;SDS011;34178;50.904;11.560;2023-02-18T04:10:19;8.27;;;4.80;;
48375;SDS011;34178;50.904;11.560;2023-02-18T04:12:46;9.35;;;5.30;;
48375;SDS011;34178;50.904;11.560;2023-02-18T04:15:12;9.57;;;5.70;;
48375;SDS011;34178;50.904;11.560;2023-02-18T04:17:38;8.60;;;5.15;;
48375;SDS011;34178;50.904;11.560;2023-02-18T04:20:04;9.57;;;5.70;;
48375;SDS011;34178;50.904;11.560;2023-02-18T04:22:30;9.45;;;5.70;;
48375;SDS011;34178;50.904;11.560;2023-02-18T04:24:56;10.73;;;5.57;;
48375;SDS011;34178;50.904;11.560;2023-02-18T04:27:21;9.45;;;5.70;;
48375;SDS011;34178;50.904;11.560;2023-02-18T04:29:47;11.18;;;5.57;;
48375;SDS011;34178;50.904;11.560;2023-02-18T04:32:13;9.57;;;5.68;;
48375;SDS011;34178;50.904;11.560;2023-02-18T04:34:39;11.95;;;5.95;;
48375;SDS011;34178;50.904;11.560;2023-02-18T04:37:04;9.82;;;5.70;;
48375;SDS011;34178;50.904;11.560;2023-02-18T04:39:30;12.32;;;6.97;;
48375;SDS011;34178;50.904;11.560;2023-02-18T04:41:55;9.57;;;5.57;;
48375;SDS011;34178;50.904;11.560;2023-02-18T04:44:21;11.80;;;6.82;;
48375;SDS011;34178;50.904;11.560;2023-02-18T04:46:47;13.40;;;7.70;;
48375;SDS011;34178;50.904;11.560;2023-02-18T04:49:12;11.70;;;7.47;;
48375;SDS011;34178;50.904;11.560;2023-02-18T04:51:38;12.23;;;7.22;;
48375;SDS011;34178;50.904;11.560;2023-02-18T04:54:04;12.85;;;7.13;;
48375;SDS011;34178;50.904;11.560;2023-02-18T04:56:29;12.65;;;7.60;;
48375;SDS011;34178;50.904;11.560;2023-02-18T04:58:55;12.82;;;7.85;;
48375;SDS011;34178;50.904;11.560;2023-02-18T05:01:21;12.57;;;7.80;;
48375;SDS011;34178;50.904;11.560;2023-02-18T05:03:46;15.27;;;8.10;;
48375;SDS011;34178;50.904;11.560;2023-02-18T05:06:12;13.05;;;8.38;;
48375;SDS011;34178;50.904;11.560;2023-02-18T05:08:38;12.10;;;7.38;;
48375;SDS011;34178;50.904;11.560;2023-02-18T05:11:04;15.95;;;8.38;;
48375;SDS011;34178;50.904;11.560;2023-02-18T05:13:33;16.02;;;8.98;;
48375;SDS011;34178;50.904;11.560;2023-02-18T05:15:59;14.85;;;8.18;;
48375;SDS011;34178;50.904;11.560;2023-02-18T05:18:26;14.60;;;8.00;;
48375;SDS011;34178;50.904;11.560;2023-02-18T05:20:52;13.88;;;8.27;;
48375;SDS011;34178;50.904;11.560;2023-02-18T05:23:17;12.18;;;7.38;;
48375;SDS011;34178;50.904;11.560;2023-02-18T05:25:45;12.18;;;7.70;;
48375;SDS011;34178;50.904;11.560;2023-02-18T05:28:11;14.07;;;8.60;;
48375;SDS011;34178;50.904;11.560;2023-02-18T05:30:36;13.45;;;7.68;;
48375;SDS011;34178;50.904;11.560;2023-02-18T05:33:02;13.43;;;8.57;;
48375;SDS011;34178;50.904;11.560;2023-02-18T05:35:28;14.52;;;8.75;;
48375;SDS011;34178;50.904;11.560;2023-02-18T05:37:54;15.35;;;9.02;;
48375;SDS011;34178;50.904;11.560;2023-02-18T05:40:19;18.85;;;9.05;;
48375;SDS011;34178;50.904;11.560;2023-02-18T05:42:45;13.90;;;8.23;;
48375;SDS011;34178;50.904;11.560;2023-02-18T05:45:11;15.07;;;8.73;;
48375;SDS011;34178;50.904;11.560;2023-02-18T05:47:36;16.42;;;8.45;;
48375;SDS011;34178;50.904;11.560;2023-02-18T05:50:02;13.70;;;7.78;;
48375;SDS011;34178;50.904;11.560;2023-02-18T05:52:28;11.65;;;7.50;;
48375;SDS011;34178;50.904;11.560;2023-02-18T05:54:54;13.55;;;7.72;;
48375;SDS011;34178;50.904;11.560;2023-02-18T05:57:20;13.80;;;7.35;;
48375;SDS011;34178;50.904;11.560;2023-02-18T05:59:45;14.63;;;7.38;;
48375;SDS011;34178;50.904;11.560;2023-02-18T06:02:11;9.25;;;4.70;;
48375;SDS011;34178;50.904;11.560;2023-02-18T06:04:37;10.40;;;4.75;;
48375;SDS011;34178;50.904;11.560;2023-02-18T06:07:04;7.82;;;3.58;;
48375;SDS011;34178;50.904;11.560;2023-02-18T06:09:30;8.23;;;3.20;;
48375;SDS011;34178;50.904;11.560;2023-02-18T06:11:56;5.07;;;2.97;;
48375;SDS011;34178;50.904;11.560;2023-02-18T06:14:21;6.68;;;3.00;;
48375;SDS011;34178;50.904;11.560;2023-02-18T06:16:47;6.75;;;2.53;;
48375;SDS011;34178;50.904;11.560;2023-02-18T06:19:13;5.75;;;2.70;;
48375;SDS011;34178;50.904;11.560;2023-02-18T06:21:38;5.35;;;2.25;;
48375;SDS011;34178;50.904;11.560;2023-02-18T06:24:04;4.80;;;2.38;;
48375;SDS011;34178;50.904;11.560;2023-02-18T06:26:30;6.03;;;2.70;;
48375;SDS011;34178;50.904;11.560;2023-02-18T06:28:56;5.40;;;2.83;;
48375;SDS011;34178;50.904;11.560;2023-02-18T06:31:22;6.63;;;2.63;;
48375;SDS011;34178;50.904;11.560;2023-02-18T06:33:47;4.70;;;2.30;;
48375;SDS011;34178;50.904;11.560;2023-02-18T06:36:13;4.38;;;2.30;;
48375;SDS011;34178;50.904;11.560;2023-02-18T06:38:40;6.45;;;2.65;;
48375;SDS011;34178;50.904;11.560;2023-02-18T06:41:07;4.10;;;2.00;;
48375;SDS011;34178;50.904;11.560;2023-02-18T06:43:33;4.45;;;2.08;;
48375;SDS011;34178;50.904;11.560;2023-02-18T06:45:59;4.43;;;2.15;;
48375;SDS011;34178;50.904;11.560;2023-02-18T06:48:25;3.88;;;1.90;;
48375;SDS011;34178;50.904;11.560;2023-02-18T06:50:51;4.28;;;1.95;;
48375;SDS011;34178;50.904;11.560;2023-02-18T06:53:17;3.50;;;1.80;;
48375;SDS011;34178;50.904;11.560;2023-02-18T06:55:43;4.63;;;1.90;;
48375;SDS011;34178;50.904;11.560;2023-02-18T06:58:09;3.33;;;1.65;;
48375;SDS011;34178;50.904;11.560;2023-02-18T07:00:35;3.72;;;1.65;;
48375;SDS011;34178;50.904;11.560;2023-02-18T07:03:02;5.32;;;1.50;;
48375;SDS011;34178;50.904;11.560;2023-02-18T07:05:28;2.60;;;1.10;;
48375;SDS011;34178;50.904;11.560;2023-02-18T07:07:54;2.63;;;1.27;;
48375;SDS011;34178;50.904;11.560;2023-02-18T07:10:20;2.53;;;1.13;;
48375;SDS011;34178;50.904;11.560;2023-02-18T07:12:45;2.97;;;1.23;;
48375;SDS011;34178;50.904;11.560;2023-02-18T07:15:11;2.45;;;1.20;;
48375;SDS011;34178;50.904;11.560;2023-02-18T07:17:37;2.55;;;0.80;;
48375;SDS011;34178;50.904;11.560;2023-02-18T07:20:03;1.63;;;0.77;;
48375;SDS011;34178;50.904;11.560;2023-02-18T07:22:30;1.27;;;0.60;;
48375;SDS011;34178;50.904;11.560;2023-02-18T07:24:57;1.77;;;0.70;;
48375;SDS011;34178;50.904;11.560;2023-02-18T07:27:23;2.78;;;0.80;;
48375;SDS011;34178;50.904;11.560;2023-02-18T07:29:49;1.85;;;0.73;;
48375;SDS011;34178;50.904;11.560;2023-02-18T07:32:15;1.85;;;0.65;;
48375;SDS011;34178;50.904;11.560;2023-02-18T07:34:42;1.08;;;0.50;;
48375;SDS011;34178;50.904;11.560;2023-02-18T07:37:08;2.63;;;0.75;;
48375;SDS011;34178;50.904;11.560;2023-02-18T07:39:34;2.45;;;0.70;;
48375;SDS011;34178;50.904;11.560;2023-02-18T07:42:03;2.35;;;0.60;;
48375;SDS011;34178;50.904;11.560;2023-02-18T07:44:29;1.77;;;0.65;;
48375;SDS011;34178;50.904;11.560;2023-02-18T07:46:55;1.08;;;0.60;;
48375;SDS011;34178;50.904;11.560;2023-02-18T07:49:20;1.35;;;0.60;;
48375;SDS011;34178;50.904;11.560;2023-02-18T07:51:47;2.78;;;0.95;;
48375;SDS011;34178;50.904;11.560;2023-02-18T07:54:13;2.03;;;0.60;;
48375;SDS011;34178;50.904;11.560;2023-02-18T07:56:39;1.85;;;0.70;;
48375;SDS011;34178;50.904;11.560;2023-02-18T07:59:07;1.00;;;0.60;;
48375;SDS011;34178;50.904;11.560;2023-02-18T08:01:33;1.15;;;0.50;;
48375;SDS011;34178;50.904;11.560;2023-02-18T08:03:59;1.90;;;0.60;;
48375;SDS011;34178;50.904;11.560;2023-02-18T08:06:25;1.60;;;0.60;;
48375;SDS011;34178;50.904;11.560;2023-02-18T08:08:54;1.73;;;0.60;;
48375;SDS011;34178;50.904;11.560;2023-02-18T08:11:20;2.28;;;0.50;;
48375;SDS011;34178;50.904;11.560;2023-02-18T08:13:47;1.10;;;0.45;;
48375;SDS011;34178;50.904;11.560;2023-02-18T08:16:13;1.02;;;0.57;;
48375;SDS011;34178;50.904;11.560;2023-02-18T08:18:40;1.85;;;0.65;;
48375;SDS011;34178;50.904;11.560;2023-02-18T08:21:06;3.03;;;1.10;;
48375;SDS011;34178;50.904;11.560;2023-02-18T08:23:31;2.05;;;0.70;;
48375;SDS011;34178;50.904;11.560;2023-02-18T08:25:57;2.50;;;0.82;;
48375;SDS011;34178;50.904;11.560;2023-02-18T08:28:23;1.52;;;0.75;;
48375;SDS011;34178;50.904;11.560;2023-02-18T08:30:49;2.30;;;1.00;;
48375;SDS011;34178;50.904;11.560;2023-02-18T08:33:19;1.35;;;0.40;;
48375;SDS011;34178;50.904;11.560;2023-02-18T08:35:45;2.67;;;0.95;;
48375;SDS011;34178;50.904;11.560;2023-02-18T08:38:12;1.00;;;0.43;;
48375;SDS011;34178;50.904;11.560;2023-02-18T08:40:38;4.22;;;0.57;;
48375;SDS011;34178;50.904;11.560;2023-02-18T08:43:10;2.00;;;0.70;;
48375;SDS011;34178;50.904;11.560;2023-02-18T08:45:36;2.03;;;0.88;;
48375;SDS011;34178;50.904;11.560;2023-02-18T08:48:02;2.65;;;0.90;;
48375;SDS011;34178;50.904;11.560;2023-02-18T08:50:29;0.95;;;0.60;;
48375;SDS011;34178;50.904;11.560;2023-02-18T08:52:55;1.17;;;0.63;;
48375;SDS011;34178;50.904;11.560;2023-02-18T08:55:21;0.50;;;0.40;;
48375;SDS011;34178;50.904;11.560;2023-02-18T08:57:48;0.52;;;0.28;;
48375;SDS011;34178;50.904;11.560;2023-02-18T09:00:14;0.30;;;0.30;;
48375;SDS011;34178;50.904;11.560;2023-02-18T09:02:41;0.95;;;0.52;;
48375;SDS011;34178;50.904;11.560;2023-02-18T09:05:07;2.83;;;1.30;;
48375;SDS011;34178;50.904;11.560;2023-02-18T09:07:34;1.05;;;0.45;;
48375;SDS011;34178;50.904;11.560;2023-02-18T09:10:01;3.40;;;1.00;;
48375;SDS011;34178;50.904;11.560;2023-02-18T09:12:27;0.52;;;0.32;;
48375;SDS011;34178;50.904;11.560;2023-02-18T09:14:56;0.50;;;0.40;;
48375;SDS011;34178;50.904;11.560;2023-02-18T09:17:22;0.80;;;0.38;;
48375;SDS011;34178;50.904;11.560;2023-02-18T09:19:47;0.60;;;0.40;;
48375;SDS011;34178;50.904;11.560;2023-02-18T09:22:13;3.08;;;0.52;;
48375;SDS011;34178;50.904;11.560;2023-02-18T09:24:40;1.58;;;0.70;;
48375;SDS011;34178;50.904;11.560;2023-02-18T09:27:06;0.43;;;0.20;;
48375;SDS011;34178;50.904;11.560;2023-02-18T09:29:32;0.70;;;0.30;;
48375;SDS011;34178;50.904;11.560;2023-02-18T09:31:59;0.68;;;0.30;;
48375;SDS011;34178;50.904;11.560;2023-02-18T09:37:01;1.08;;;0.40;;
48375;SDS011;34178;50.904;11.560;2023-02-18T09:39:28;1.35;;;0.40;;
48375;SDS011;34178;50.904;11.560;2023-02-18T09:41:54;1.08;;;0.30;;
48375;SDS011;34178;50.904;11.560;2023-02-18T09:59:59;1.52;;;0.60;;
48375;SDS011;34178;50.904;11.560;2023-02-18T10:02:29;0.52;;;0.20;;
48375;SDS011;34178;50.904;11.560;2023-02-18T10:20:28;0.30;;;0.20;;
48375;SDS011;34178;50.904;11.560;2023-02-18T10:35:47;0.43;;;0.30;;
48375;SDS011;34178;50.904;11.560;2023-02-18T10:52:18;1.50;;;0.40;;
48375;SDS011;34178;50.904;11.560;2023-02-18T10:57:23;1.15;;;0.28;;
48375;SDS011;34178;50.904;11.560;2023-02-18T11:02:37;1.10;;;0.40;;
48375;SDS011;34178;50.904;11.560;2023-02-18T11:05:22;0.52;;;0.30;;
48375;SDS011;34178;50.904;11.560;2023-02-18T11:07:50;0.90;;;0.40;;
48375;SDS011;34178;50.904;11.560;2023-02-18T11:12:57;3.03;;;0.90;;
48375;SDS011;34178;50.904;11.560;2023-02-18T11:15:26;1.10;;;0.52;;
48375;SDS011;34178;50.904;11.560;2023-02-18T11:17:53;1.52;;;0.82;;
48375;SDS011;34178;50.904;11.560;2023-02-18T11:20:34;3.70;;;0.57;;
48375;SDS011;34178;50.904;11.560;2023-02-18T11:25:30;2.28;;;0.70;;
48375;SDS011;34178;50.904;11.560;2023-02-18T11:28:02;1.92;;;0.60;;
48375;SDS011;34178;50.904;11.560;2023-02-18T11:30:54;1.52;;;0.50;;
48375;SDS011;34178;50.904;11.560;2023-02-18T11:33:27;0.82;;;0.47;;
48375;SDS011;34178;50.904;11.560;2023-02-18T11:36:02;1.02;;;0.47;;
48375;SDS011;34178;50.904;11.560;2023-02-18T11:41:14;1.25;;;0.40;;
48375;SDS011;34178;50.904;11.560;2023-02-18T11:46:21;3.33;;;0.47;;
48375;SDS011;34178;50.904;11.560;2023-02-18T11:48:48;1.15;;;0.40;;
48375;SDS011;34178;50.904;11.560;2023-02-18T11:51:19;1.65;;;0.40;;
48375;SDS011;34178;50.904;11.560;2023-02-18T11:53:55;2.72;;;0.43;;
48375;SDS011;34178;50.904;11.560;2023-02-18T11:56:23;1.35;;;0.40;;
48375;SDS011;34178;50.904;11.560;2023-02-18T11:58:50;0.50;;;0.30;;
48375;SDS011;34178;50.904;11.560;2023-02-18T12:01:37;0.77;;;0.35;;
48375;SDS011;34178;50.904;11.560;2023-02-18T12:09:53;2.88;;;1.10;;
48375;SDS011;34178;50.904;11.560;2023-02-18T12:12:31;1.15;;;0.70;;
48375;SDS011;34178;50.904;11.560;2023-02-18T12:18:18;1.55;;;0.35;;
48375;SDS011;34178;50.904;11.560;2023-02-18T12:23:50;1.65;;;0.43;;
48375;SDS011;34178;50.904;11.560;2023-02-18T12:26:29;1.02;;;0.40;;
48375;SDS011;34178;50.904;11.560;2023-02-18T12:29:13;0.50;;;0.20;;
48375;SDS011;34178;50.904;11.560;2023-02-18T12:43:34;1.13;;;0.50;;
48375;SDS011;34178;50.904;11.560;2023-02-18T12:55:58;0.70;;;0.50;;
48375;SDS011;34178;50.904;11.560;2023-02-18T12:58:31;1.63;;;0.80;;
48375;SDS011;34178;50.904;11.560;2023-02-18T13:01:24;1.20;;;0.50;;
48375;SDS011;34178;50.904;11.560;2023-02-18T13:09:31;1.02;;;0.50;;
48375;SDS011;34178;50.904;11.560;2023-02-18T13:15:04;1.33;;;0.60;;
48375;SDS011;34178;50.904;11.560;2023-02-18T13:17:42;0.90;;;0.40;;
48375;SDS011;34178;50.904;11.560;2023-02-18T13:22:59;0.55;;;0.30;;
48375;SDS011;34178;50.904;11.560;2023-02-18T13:25:27;0.85;;;0.40;;
48375;SDS011;34178;50.904;11.560;2023-02-18T13:30:38;1.17;;;0.40;;
48375;SDS011;34178;50.904;11.560;2023-02-18T13:38:31;0.63;;;0.40;;
48375;SDS011;34178;50.904;11.560;2023-02-18T13:41:04;2.15;;;0.28;;
48375;SDS011;34178;50.904;11.560;2023-02-18T13:43:31;0.77;;;0.35;;
48375;SDS011;34178;50.904;11.560;2023-02-18T13:46:17;1.33;;;0.50;;
48375;SDS011;34178;50.904;11.560;2023-02-18T13:51:12;0.68;;;0.50;;
48375;SDS011;34178;50.904;11.560;2023-02-18T13:53:41;0.50;;;0.30;;
48375;SDS011;34178;50.904;11.560;2023-02-18T13:58:55;1.67;;;0.40;;
48375;SDS011;34178;50.904;11.560;2023-02-18T14:01:37;2.50;;;0.50;;
48375;SDS011;34178;50.904;11.560;2023-02-18T14:09:42;1.00;;;0.65;;
48375;SDS011;34178;50.904;11.560;2023-02-18T14:12:59;2.25;;;0.40;;
48375;SDS011;34178;50.904;11.560;2023-02-18T14:31:03;1.88;;;0.50;;
48375;SDS011;34178;50.904;11.560;2023-02-18T14:33:36;1.10;;;0.40;;
48375;SDS011;34178;50.904;11.560;2023-02-18T14:44:17;1.50;;;0.40;;
48375;SDS011;34178;50.904;11.560;2023-02-18T14:49:59;3.15;;;0.77;;
48375;SDS011;34178;50.904;11.560;2023-02-18T14:52:32;2.17;;;0.70;;
48375;SDS011;34178;50.904;11.560;2023-02-18T14:55:11;2.17;;;0.50;;
48375;SDS011;34178;50.904;11.560;2023-02-18T14:57:50;1.20;;;0.60;;
48375;SDS011;34178;50.904;11.560;2023-02-18T15:00:24;2.92;;;0.63;;
48375;SDS011;34178;50.904;11.560;2023-02-18T15:02:56;2.28;;;0.50;;
48375;SDS011;34178;50.904;11.560;2023-02-18T15:05:27;2.60;;;0.80;;
48375;SDS011;34178;50.904;11.560;2023-02-18T15:10:20;2.58;;;0.80;;
48375;SDS011;34178;50.904;11.560;2023-02-18T15:12:45;2.03;;;0.57;;
48375;SDS011;34178;50.904;11.560;2023-02-18T15:15:12;3.05;;;0.65;;
48375;SDS011;34178;50.904;11.560;2023-02-18T15:17:43;1.10;;;0.50;;
48375;SDS011;34178;50.904;11.560;2023-02-18T15:20:12;6.18;;;1.38;;
48375;SDS011;34178;50.904;11.560;2023-02-18T15:22:39;3.63;;;1.38;;
48375;SDS011;34178;50.904;11.560;2023-02-18T15:25:05;3.88;;;1.35;;
48375;SDS011;34178;50.904;11.560;2023-02-18T15:27:33;1.10;;;0.50;;
48375;SDS011;34178;50.904;11.560;2023-02-18T15:32:32;1.02;;;0.47;;
48375;SDS011;34178;50.904;11.560;2023-02-18T15:34:59;3.58;;;1.30;;
48375;SDS011;34178;50.904;11.560;2023-02-18T15:37:28;2.50;;;0.60;;
48375;SDS011;34178;50.904;11.560;2023-02-18T15:39:54;7.97;;;3.13;;
48375;SDS011;34178;50.904;11.560;2023-02-18T15:44:55;1.35;;;0.40;;
48375;SDS011;34178;50.904;11.560;2023-02-18T15:47:48;2.70;;;0.47;;
48375;SDS011;34178;50.904;11.560;2023-02-18T15:50:20;0.45;;;0.38;;
48375;SDS011;34178;50.904;11.560;2023-02-18T15:52:48;1.00;;;0.38;;
48375;SDS011;34178;50.904;11.560;2023-02-18T15:55:26;2.63;;;0.52;;
48375;SDS011;34178;50.904;11.560;2023-02-18T15:57:58;1.45;;;0.45;;
48375;SDS011;34178;50.904;11.560;2023-02-18T16:00:27;3.13;;;0.40;;
48375;SDS011;34178;50.904;11.560;2023-02-18T16:05:35;6.07;;;2.00;;
48375;SDS011;34178;50.904;11.560;2023-02-18T16:08:05;5.88;;;2.85;;
48375;SDS011;34178;50.904;11.560;2023-02-18T16:10:45;1.77;;;0.80;;
48375;SDS011;34178;50.904;11.560;2023-02-18T16:13:15;2.47;;;1.00;;
48375;SDS011;34178;50.904;11.560;2023-02-18T16:15:43;1.63;;;0.70;;
48375;SDS011;34178;50.904;11.560;2023-02-18T16:18:29;2.25;;;0.57;;
48375;SDS011;34178;50.904;11.560;2023-02-18T16:21:44;0.40;;;0.30;;
48375;SDS011;34178;50.904;11.560;2023-02-18T16:24:02;1.38;;;0.73;;
48375;SDS011;34178;50.904;11.560;2023-02-18T16:26:45;0.70;;;0.30;;
48375;SDS011;34178;50.904;11.560;2023-02-18T16:29:23;0.63;;;0.30;;
48375;SDS011;34178;50.904;11.560;2023-02-18T16:31:58;1.80;;;0.50;;
48375;SDS011;34178;50.904;11.560;2023-02-18T16:34:24;1.35;;;0.50;;
48375;SDS011;34178;50.904;11.560;2023-02-18T16:36:51;1.40;;;0.57;;
48375;SDS011;34178;50.904;11.560;2023-02-18T16:39:36;1.13;;;0.40;;
48375;SDS011;34178;50.904;11.560;2023-02-18T16:42:01;2.05;;;0.90;;
48375;SDS011;34178;50.904;11.560;2023-02-18T16:44:27;2.85;;;0.90;;
48375;SDS011;34178;50.904;11.560;2023-02-18T16:46:53;1.02;;;0.40;;
48375;SDS011;34178;50.904;11.560;2023-02-18T16:49:18;2.30;;;0.52;;
48375;SDS011;34178;50.904;11.560;2023-02-18T16:51:45;1.08;;;0.70;;
48375;SDS011;34178;50.904;11.560;2023-02-18T16:54:12;0.43;;;0.28;;
48375;SDS011;34178;50.904;11.560;2023-02-18T16:56:38;3.67;;;1.10;;
48375;SDS011;34178;50.904;11.560;2023-02-18T16:59:04;1.58;;;0.95;;
48375;SDS011;34178;50.904;11.560;2023-02-18T17:01:32;2.03;;;0.70;;
48375;SDS011;34178;50.904;11.560;2023-02-18T17:04:05;0.70;;;0.30;;
48375;SDS011;34178;50.904;11.560;2023-02-18T17:06:34;1.13;;;0.30;;
48375;SDS011;34178;50.904;11.560;2023-02-18T17:09:00;1.63;;;0.40;;
48375;SDS011;34178;50.904;11.560;2023-02-18T17:11:30;0.95;;;0.40;;
48375;SDS011;34178;50.904;11.560;2023-02-18T17:13:58;1.05;;;0.45;;
48375;SDS011;34178;50.904;11.560;2023-02-18T17:16:24;1.20;;;0.47;;
48375;SDS011;34178;50.904;11.560;2023-02-18T17:18:51;0.95;;;0.38;;
48375;SDS011;34178;50.904;11.560;2023-02-18T17:21:17;0.90;;;0.50;;
48375;SDS011;34178;50.904;11.560;2023-02-18T17:23:45;2.47;;;0.85;;
48375;SDS011;34178;50.904;11.560;2023-02-18T17:26:20;0.73;;;0.30;;
48375;SDS011;34178;50.904;11.560;2023-02-18T17:28:50;2.15;;;0.82;;
48375;SDS011;34178;50.904;11.560;2023-02-18T17:33:49;5.72;;;2.38;;
48375;SDS011;34178;50.904;11.560;2023-02-18T17:36:19;2.92;;;1.10;;
48375;SDS011;34178;50.904;11.560;2023-02-18T17:38:45;3.15;;;0.95;;
48375;SDS011;34178;50.904;11.560;2023-02-18T17:41:11;4.63;;;2.30;;
48375;SDS011;34178;50.904;11.560;2023-02-18T17:43:38;1.30;;;0.50;;
48375;SDS011;34178;50.904;11.560;2023-02-18T17:46:04;10.30;;;2.42;;
48375;SDS011;34178;50.904;11.560;2023-02-18T17:48:30;2.95;;;1.27;;
48375;SDS011;34178;50.904;11.560;2023-02-18T17:50:56;1.98;;;0.60;;
48375;SDS011;34178;50.904;11.560;2023-02-18T17:53:22;1.75;;;0.80;;
48375;SDS011;34178;50.904;11.560;2023-02-18T17:55:49;1.00;;;0.40;;
48375;SDS011;34178;50.904;11.560;2023-02-18T17:58:15;0.90;;;0.60;;
48375;SDS011;34178;50.904;11.560;2023-02-18T18:01:15;1.52;;;0.60;;
48375;SDS011;34178;50.904;11.560;2023-02-18T18:03:34;2.55;;;0.60;;
48375;SDS011;34178;50.904;11.560;2023-02-18T18:06:00;0.90;;;0.50;;
48375;SDS011;34178;50.904;11.560;2023-02-18T18:08:28;1.10;;;0.60;;
48375;SDS011;34178;50.904;11.560;2023-02-18T18:10:56;3.20;;;0.60;;
48375;SDS011;34178;50.904;11.560;2023-02-18T18:13:28;0.65;;;0.40;;
48375;SDS011;34178;50.904;11.560;2023-02-18T18:15:58;1.48;;;0.75;;
48375;SDS011;34178;50.904;11.560;2023-02-18T18:18:25;2.13;;;0.73;;
48375;SDS011;34178;50.904;11.560;2023-02-18T18:20:52;2.55;;;1.20;;
48375;SDS011;34178;50.904;11.560;2023-02-18T18:23:20;2.53;;;1.00;;
48375;SDS011;34178;50.904;11.560;2023-02-18T18:25:48;8.02;;;3.20;;
48375;SDS011;34178;50.904;11.560;2023-02-18T18:28:18;3.42;;;1.02;;
48375;SDS011;34178;50.904;11.560;2023-02-18T18:30:45;2.45;;;1.08;;
48375;SDS011;34178;50.904;11.560;2023-02-18T18:33:17;6.68;;;2.50;;